KCVO/CVO METAR and TAF weather

Enter ICAO airport designator
Station Type Date Time Source
KCVO METAR 2020/04/05 05:35 UTC NOAA

KCVO 050535Z AUTO 03005KT 8SM BKN005 OVC017 06/06 A2959 RMK AO2


Station Type Date Time Source
KCVO Decoded METAR 2020/04/05 05:35 UTC NOAA

Corvallis, Corvallis Municipal Airport, OR, United States (KCVO) 44-30N 123-17W
Apr 05, 2020 - 01:35 AM EDT / 2020.04.05 0535 UTC
Wind: from the NNE (030 degrees) at 6 MPH (5 KT):0
Visibility: 8 mile(s):0
Sky conditions: overcast
Temperature: 42 F (6 C)
Dew Point: 42 F (6 C)
Relative Humidity: 100%
Pressure (altimeter): 29.59 in. Hg (1002 hPa)
ob: KCVO 050535Z AUTO 03005KT 8SM BKN005 OVC017 06/06 A2959 RMK AO2
cycle: 5

Station Type Date Time Source
KCVO TAF UTC NOAA

Error!

Example: see airport list